Time;durP1;ratioP1;P1;durP2;ratioP2;P2;SDS_P1;SDS_P2;PMS_P1;PMS_P2;Temp;Humidity;BMP_temperature;BMP_pressure;BME280_temperature;BME280_humidity;BME280_pressure;Samples;Min_cycle;Max_cycle;Signal;HPM_P1;HPM_P2
2021/05/12 00:00:31;;;;;;;0.50;0.30;;;21.90;54.90;;;;;;5031114;28;20037;-33
2021/05/12 00:02:58;;;;;;;0.65;0.40;;;21.90;54.80;;;;;;5030392;28;20037;-33
2021/05/12 00:05:25;;;;;;;0.85;0.45;;;21.90;54.80;;;;;;5031357;28;20037;-45
2021/05/12 00:07:52;;;;;;;0.80;0.73;;;21.80;54.80;;;;;;5031297;28;20053;-34
2021/05/12 00:10:22;;;;;;;0.70;0.43;;;21.80;54.70;;;;;;5031874;28;20370;-33
2021/05/12 00:12:48;;;;;;;0.28;0.28;;;21.80;54.70;;;;;;5031067;28;20021;-33
2021/05/12 00:15:16;;;;;;;1.05;0.40;;;21.80;54.70;;;;;;5031382;28;20041;-34
2021/05/12 00:17:44;;;;;;;0.95;0.30;;;21.90;54.70;;;;;;5029605;28;20521;-34
2021/05/12 00:20:11;;;;;;;0.63;0.57;;;21.90;54.70;;;;;;5027060;28;20450;-36
2021/05/12 00:25:18;;;;;;;1.45;0.70;;;21.80;54.70;;;;;;5031631;28;20120;-34
2021/05/12 00:27:44;;;;;;;0.85;0.55;;;21.90;54.80;;;;;;5031204;28;20105;-33
2021/05/12 00:30:14;;;;;;;0.85;0.50;;;21.80;54.70;;;;;;5031625;28;20128;-34
2021/05/12 00:32:41;;;;;;;4.05;0.45;;;21.80;54.70;;;;;;5030663;28;20443;-33
2021/05/12 00:35:08;;;;;;;0.95;0.50;;;21.80;54.60;;;;;;5032285;28;20037;-33
2021/05/12 00:37:34;;;;;;;0.60;0.50;;;21.90;54.80;;;;;;5033437;28;20036;-33
2021/05/12 00:40:00;;;;;;;1.27;0.70;;;21.80;54.60;;;;;;5035127;28;20030;-34
2021/05/12 00:42:33;;;;;;;0.85;0.40;;;21.90;54.70;;;;;;5035400;28;20021;-44
2021/05/12 00:44:59;;;;;;;0.77;0.50;;;21.80;54.60;;;;;;5033902;28;20068;-33
2021/05/12 00:47:27;;;;;;;0.57;0.30;;;21.80;54.50;;;;;;5034985;28;20037;-43
2021/05/12 00:49:53;;;;;;;0.40;0.40;;;21.80;54.60;;;;;;5035249;28;20036;-33
2021/05/12 00:52:19;;;;;;;1.13;0.60;;;21.80;54.50;;;;;;5035280;28;20033;-33
2021/05/12 00:54:44;;;;;;;0.45;0.45;;;21.80;54.50;;;;;;5032709;28;20626;-34
2021/05/12 00:57:10;;;;;;;0.75;0.50;;;21.80;54.50;;;;;;5035571;28;20021;-34
2021/05/12 00:59:36;;;;;;;0.63;0.40;;;21.80;54.40;;;;;;5034291;28;20041;-33
2021/05/12 01:02:03;;;;;;;1.55;0.45;;;21.80;54.40;;;;;;5033852;28;20533;-33
2021/05/12 01:04:29;;;;;;;0.52;0.40;;;21.80;54.40;;;;;;5032935;28;20160;-35
2021/05/12 01:06:54;;;;;;;0.70;0.47;;;21.80;54.40;;;;;;5033709;28;20140;-34
2021/05/12 01:09:20;;;;;;;0.90;0.43;;;21.80;54.40;;;;;;5034506;28;20037;-33
2021/05/12 01:11:46;;;;;;;2.38;0.50;;;21.80;54.30;;;;;;5034447;28;20207;-33
2021/05/12 01:14:11;;;;;;;0.88;0.30;;;21.80;54.30;;;;;;5028771;28;20041;-34
2021/05/12 01:16:38;;;;;;;0.93;0.30;;;21.80;54.30;;;;;;5034167;28;20057;-33
2021/05/12 01:19:04;;;;;;;1.23;0.70;;;21.80;54.20;;;;;;5039855;28;20034;-34
2021/05/12 01:21:30;;;;;;;0.80;0.40;;;21.80;54.30;;;;;;5053979;28;20032;-34
2021/05/12 01:23:57;;;;;;;0.85;0.32;;;21.80;54.20;;;;;;5046220;28;20201;-33
2021/05/12 01:26:23;;;;;;;1.42;0.43;;;21.80;54.30;;;;;;5034487;28;20049;-33
2021/05/12 01:28:54;;;;;;;0.70;0.50;;;21.80;54.20;;;;;;5034297;28;20347;-34
2021/05/12 01:31:41;;;;;;;0.75;0.40;;;21.80;54.20;;;;;;5033168;28;20091;-33
2021/05/12 01:34:12;;;;;;;0.90;0.40;;;21.80;54.20;;;;;;5034528;28;20369;-34
2021/05/12 01:36:38;;;;;;;0.43;0.40;;;21.80;54.10;;;;;;5033866;28;20029;-34
2021/05/12 01:39:05;;;;;;;0.82;0.45;;;21.80;54.20;;;;;;5034221;28;20033;-36
2021/05/12 01:41:32;;;;;;;1.08;0.90;;;21.80;54.10;;;;;;5033836;28;20029;-34
2021/05/12 01:43:58;;;;;;;0.80;0.50;;;21.80;54.10;;;;;;5034099;28;20052;-33
2021/05/12 01:46:24;;;;;;;0.55;0.50;;;21.80;54.00;;;;;;5032853;28;20033;-34
2021/05/12 01:48:50;;;;;;;0.88;0.50;;;21.80;54.00;;;;;;5033162;28;20033;-33
2021/05/12 01:51:17;;;;;;;0.90;0.40;;;21.80;53.90;;;;;;5033965;28;20087;-34
2021/05/12 01:53:43;;;;;;;0.93;0.50;;;21.80;54.00;;;;;;5032857;28;20039;-34
2021/05/12 01:56:12;;;;;;;0.68;0.45;;;21.80;53.90;;;;;;5034191;28;20099;-33
2021/05/12 01:58:39;;;;;;;1.00;0.40;;;21.80;53.80;;;;;;5032678;28;20072;-34
2021/05/12 02:01:05;;;;;;;0.85;0.50;;;21.80;53.90;;;;;;5033849;28;20033;-33
2021/05/12 02:03:32;;;;;;;0.43;0.30;;;21.80;54.00;;;;;;5033287;28;20029;-38
2021/05/12 02:05:57;;;;;;;0.82;0.30;;;21.80;53.90;;;;;;5033717;28;20037;-34
2021/05/12 02:08:26;;;;;;;1.00;0.50;;;21.80;53.90;;;;;;5029714;28;20512;-34
2021/05/12 02:10:57;;;;;;;1.65;0.57;;;21.80;53.80;;;;;;5032908;28;20028;-33
2021/05/12 02:13:25;;;;;;;0.95;0.40;;;21.80;53.80;;;;;;5033565;28;20494;-34
2021/05/12 02:15:51;;;;;;;0.98;0.50;;;21.80;53.80;;;;;;5032709;28;20048;-34
2021/05/12 02:18:17;;;;;;;0.60;0.60;;;21.80;53.80;;;;;;5033786;28;20386;-33
2021/05/12 02:20:43;;;;;;;1.13;0.40;;;21.80;53.70;;;;;;5032634;28;20080;-34
2021/05/12 02:23:12;;;;;;;0.98;0.55;;;21.80;53.80;;;;;;5032102;28;20475;-34
2021/05/12 02:25:38;;;;;;;1.23;0.40;;;21.80;53.70;;;;;;5032412;28;20360;-34
2021/05/12 02:28:04;;;;;;;0.60;0.40;;;21.80;53.70;;;;;;5033133;28;20394;-33
2021/05/12 02:30:30;;;;;;;1.30;0.50;;;21.80;53.70;;;;;;5032758;28;20022;-44
2021/05/12 02:32:56;;;;;;;1.60;0.60;;;21.80;53.60;;;;;;5033402;28;20021;-33
2021/05/12 02:35:23;;;;;;;0.70;0.50;;;21.80;53.60;;;;;;5033269;28;20053;-33
2021/05/12 02:37:48;;;;;;;0.95;0.57;;;21.70;53.60;;;;;;5032459;28;20183;-33
2021/05/12 02:40:16;;;;;;;1.33;0.40;;;21.80;53.60;;;;;;5033131;28;20030;-34
2021/05/12 02:42:43;;;;;;;1.73;0.45;;;21.80;53.60;;;;;;5032595;28;20025;-34
2021/05/12 02:45:10;;;;;;;0.77;0.50;;;21.80;53.60;;;;;;5032914;28;20033;-34
2021/05/12 02:47:36;;;;;;;0.30;0.30;;;21.80;53.50;;;;;;5030984;28;20095;-33
2021/05/12 02:50:06;;;;;;;0.73;0.43;;;21.70;53.40;;;;;;5031913;28;20029;-33
2021/05/12 02:52:32;;;;;;;1.02;0.40;;;21.70;53.40;;;;;;5031119;28;20475;-43
2021/05/12 02:54:58;;;;;;;1.17;0.40;;;21.80;53.40;;;;;;5032648;28;20029;-34
2021/05/12 02:57:24;;;;;;;0.80;0.40;;;21.70;53.40;;;;;;5031384;28;20037;-33
2021/05/12 02:59:51;;;;;;;1.00;0.50;;;21.80;53.50;;;;;;5031920;28;20103;-34
2021/05/12 03:02:16;;;;;;;1.55;0.40;;;21.80;53.50;;;;;;5025998;28;20534;-33
2021/05/12 03:04:42;;;;;;;0.80;0.40;;;21.80;53.50;;;;;;5028372;28;20026;-34
2021/05/12 03:07:08;;;;;;;0.88;0.45;;;21.80;53.40;;;;;;5032865;28;20112;-34
2021/05/12 03:09:34;;;;;;;0.80;0.50;;;21.70;53.30;;;;;;5047102;28;20086;-34
2021/05/12 03:11:59;;;;;;;1.60;0.63;;;21.70;53.30;;;;;;5032521;28;20470;-34
2021/05/12 03:14:25;;;;;;;1.55;0.73;;;21.70;53.20;;;;;;5032499;28;20048;-34
2021/05/12 03:16:51;;;;;;;1.40;0.57;;;21.70;53.30;;;;;;5030151;28;20180;-33
2021/05/12 03:19:17;;;;;;;0.68;0.30;;;21.70;53.30;;;;;;5032472;28;20029;-33
2021/05/12 03:21:43;;;;;;;1.20;0.50;;;21.70;53.30;;;;;;5030251;28;20128;-34
2021/05/12 03:24:09;;;;;;;0.98;0.38;;;21.70;53.20;;;;;;5032451;28;20032;-33
2021/05/12 03:26:35;;;;;;;0.50;0.32;;;21.70;53.30;;;;;;5031322;28;20037;-34
2021/05/12 03:29:02;;;;;;;2.03;0.55;;;21.80;53.30;;;;;;5032032;28;20045;-34
2021/05/12 03:31:28;;;;;;;0.63;0.40;;;21.70;53.20;;;;;;5032457;28;20025;-41
2021/05/12 03:33:56;;;;;;;0.60;0.32;;;21.70;53.20;;;;;;5030300;28;20117;-34
2021/05/12 03:36:25;;;;;;;2.15;0.68;;;21.70;53.30;;;;;;5031542;28;20030;-35
2021/05/12 03:38:52;;;;;;;2.17;0.90;;;21.70;53.20;;;;;;5031508;28;20021;-33
2021/05/12 03:41:18;;;;;;;0.30;0.30;;;21.70;53.20;;;;;;5032078;28;20040;-33
2021/05/12 03:43:43;;;;;;;0.95;0.50;;;21.70;53.20;;;;;;5030183;28;20025;-33
2021/05/12 03:46:09;;;;;;;1.33;0.63;;;21.70;53.20;;;;;;5032125;28;20105;-33
2021/05/12 03:48:35;;;;;;;0.50;0.40;;;21.70;53.10;;;;;;5030861;28;20047;-34
2021/05/12 03:51:01;;;;;;;1.15;0.50;;;21.70;53.10;;;;;;5030512;28;20021;-33
2021/05/12 03:53:27;;;;;;;1.70;0.70;;;21.70;53.10;;;;;;5031999;28;20029;-33
2021/05/12 03:55:53;;;;;;;0.70;0.40;;;21.70;53.10;;;;;;5028821;28;20053;-33
2021/05/12 03:58:19;;;;;;;0.73;0.32;;;21.70;53.20;;;;;;5029811;28;20046;-33
2021/05/12 04:00:47;;;;;;;1.20;0.60;;;21.70;53.10;;;;;;5029942;28;20032;-33
2021/05/12 04:03:13;;;;;;;1.08;0.50;;;21.70;53.00;;;;;;5032038;28;20026;-33
2021/05/12 04:05:39;;;;;;;1.17;0.50;;;21.70;53.00;;;;;;5030422;28;20037;-33
2021/05/12 04:08:05;;;;;;;0.82;0.50;;;21.70;53.00;;;;;;5030465;28;20116;-34
2021/05/12 04:10:30;;;;;;;1.75;0.52;;;21.70;53.00;;;;;;5030194;28;20033;-45
2021/05/12 04:12:56;;;;;;;2.40;0.82;;;21.70;53.10;;;;;;5030974;28;20052;-35
2021/05/12 04:15:22;;;;;;;0.70;0.45;;;21.70;53.00;;;;;;5032093;28;20017;-34
2021/05/12 04:17:48;;;;;;;1.88;0.50;;;21.70;53.00;;;;;;5029416;28;20064;-34
2021/05/12 04:20:16;;;;;;;1.33;0.50;;;21.70;53.00;;;;;;5030673;28;20037;-35
2021/05/12 04:22:42;;;;;;;1.45;0.60;;;21.70;53.00;;;;;;5029539;28;20026;-34
2021/05/12 04:25:19;;;;;;;1.55;0.70;;;21.70;53.00;;;;;;5031261;28;20029;-35
2021/05/12 04:27:46;;;;;;;1.35;0.50;;;21.70;52.90;;;;;;5030647;28;20064;-35
2021/05/12 04:30:13;;;;;;;1.63;0.45;;;21.70;52.90;;;;;;5031234;28;20042;-35
2021/05/12 04:32:40;;;;;;;2.00;0.60;;;21.70;52.90;;;;;;5030558;28;20025;-35
2021/05/12 04:35:07;;;;;;;0.60;0.50;;;21.70;52.90;;;;;;5031317;28;20479;-35
2021/05/12 04:37:33;;;;;;;1.25;0.50;;;21.70;52.90;;;;;;5040267;28;20545;-47
2021/05/12 04:39:59;;;;;;;1.08;0.60;;;21.70;52.90;;;;;;5031888;28;20026;-35
2021/05/12 04:42:25;;;;;;;0.73;0.50;;;21.70;52.80;;;;;;5046507;28;20120;-35
2021/05/12 04:44:52;;;;;;;1.25;0.60;;;21.70;52.90;;;;;;5030462;28;20650;-38
2021/05/12 04:47:19;;;;;;;0.60;0.50;;;21.70;52.90;;;;;;5031093;28;20471;-35
2021/05/12 04:49:44;;;;;;;0.93;0.55;;;21.70;52.90;;;;;;5028939;28;20532;-36
2021/05/12 04:52:11;;;;;;;2.05;0.47;;;21.70;52.80;;;;;;5022108;28;20034;-34
2021/05/12 04:54:37;;;;;;;2.50;0.80;;;21.70;52.80;;;;;;5030481;28;20413;-35
2021/05/12 04:57:03;;;;;;;1.55;0.68;;;21.70;52.80;;;;;;5030217;28;20026;-35
2021/05/12 04:59:29;;;;;;;2.63;0.93;;;21.60;52.80;;;;;;5031301;28;20061;-34
2021/05/12 05:01:54;;;;;;;1.77;0.80;;;21.70;52.80;;;;;;5030773;28;20143;-35
2021/05/12 05:04:21;;;;;;;1.17;0.68;;;21.70;52.80;;;;;;5029897;28;20473;-34
2021/05/12 05:06:47;;;;;;;1.13;0.50;;;21.70;52.80;;;;;;5028800;28;20109;-35
2021/05/12 05:09:12;;;;;;;1.27;0.70;;;21.70;52.80;;;;;;5030834;28;20144;-35
2021/05/12 05:11:38;;;;;;;2.85;0.80;;;21.70;52.70;;;;;;5030466;28;20032;-35
2021/05/12 05:14:05;;;;;;;2.03;0.93;;;21.70;52.80;;;;;;5030721;28;20030;-34
2021/05/12 05:16:32;;;;;;;0.63;0.40;;;21.70;52.80;;;;;;5031208;28;20044;-35
2021/05/12 05:18:57;;;;;;;1.45;0.50;;;21.60;52.70;;;;;;5030390;28;20072;-34
2021/05/12 05:21:23;;;;;;;1.20;0.50;;;21.70;52.70;;;;;;5032376;28;20481;-41
2021/05/12 05:23:50;;;;;;;0.68;0.43;;;21.70;52.70;;;;;;5033712;28;20033;-35
2021/05/12 05:26:16;;;;;;;1.92;0.63;;;21.70;52.80;;;;;;5034589;28;20037;-35
2021/05/12 05:28:42;;;;;;;1.70;0.73;;;21.70;52.70;;;;;;5033564;28;20121;-35
2021/05/12 05:31:07;;;;;;;1.60;0.52;;;21.70;52.70;;;;;;5033539;28;20037;-35
2021/05/12 05:33:33;;;;;;;1.65;0.50;;;21.70;52.70;;;;;;5034418;28;20021;-45
2021/05/12 05:35:59;;;;;;;0.52;0.50;;;21.60;52.70;;;;;;5034125;28;20033;-35
2021/05/12 05:38:24;;;;;;;1.30;0.47;;;21.70;52.70;;;;;;5033302;28;20026;-35
2021/05/12 05:40:50;;;;;;;1.58;0.88;;;21.70;52.70;;;;;;5033660;28;20394;-34
2021/05/12 05:43:16;;;;;;;2.63;0.52;;;21.70;52.70;;;;;;5033989;28;20486;-34
2021/05/12 05:45:42;;;;;;;0.95;0.50;;;21.70;52.60;;;;;;5029307;28;20065;-35
2021/05/12 05:48:08;;;;;;;4.45;0.63;;;21.70;52.60;;;;;;5033934;28;20108;-35
2021/05/12 05:50:34;;;;;;;1.35;0.90;;;21.70;52.90;;;;;;5032644;28;20371;-46
2021/05/12 05:53:00;;;;;;;1.42;0.65;;;21.70;53.00;;;;;;5032499;28;20044;-35
2021/05/12 05:55:26;;;;;;;4.28;1.35;;;21.70;53.20;;;;;;5034160;28;20033;-34
2021/05/12 05:57:52;;;;;;;6.20;1.25;;;21.70;53.60;;;;;;5031441;28;20029;-36
2021/05/12 06:00:18;;;;;;;4.57;1.13;;;21.70;52.50;;;;;;5034083;28;20103;-34
2021/05/12 06:02:45;;;;;;;3.17;0.98;;;21.70;52.00;;;;;;5033120;28;20029;-34
2021/05/12 06:05:11;;;;;;;10.43;1.20;;;21.70;52.60;;;;;;5032741;28;20375;-34
2021/05/12 06:07:38;;;;;;;14.60;2.38;;;21.70;56.50;;;;;;5033127;28;20100;-46
2021/05/12 06:10:06;;;;;;;4.53;1.30;;;21.70;59.00;;;;;;5032419;28;20474;-34
2021/05/12 06:12:32;;;;;;;10.38;1.70;;;21.70;54.30;;;;;;5032266;28;20030;-34
2021/05/12 06:14:57;;;;;;;11.15;1.70;;;21.60;55.40;;;;;;5029249;28;20017;-35
2021/05/12 06:17:23;;;;;;;9.30;1.50;;;21.60;52.60;;;;;;5032270;28;20029;-35
2021/05/12 06:19:49;;;;;;;4.28;1.83;;;20.70;49.80;;;;;;5032342;28;20079;-35
2021/05/12 06:22:15;;;;;;;3.45;1.60;;;19.20;53.40;;;;;;5032465;28;20033;-35
2021/05/12 06:24:42;;;;;;;3.55;1.55;;;18.90;54.50;;;;;;5032464;28;20052;-34
2021/05/12 06:27:10;;;;;;;4.18;1.60;;;18.60;55.30;;;;;;5032795;28;20045;-35
2021/05/12 06:29:37;;;;;;;4.60;1.52;;;18.60;56.20;;;;;;5032609;28;20028;-46
2021/05/12 06:32:04;;;;;;;3.72;1.30;;;18.30;55.60;;;;;;5032865;28;20034;-35
2021/05/12 06:34:30;;;;;;;5.88;1.85;;;18.00;56.30;;;;;;5032589;28;20455;-34
2021/05/12 06:36:56;;;;;;;4.38;1.50;;;17.80;56.40;;;;;;5032743;28;20667;-34
2021/05/12 06:39:22;;;;;;;4.13;1.92;;;17.60;56.70;;;;;;5028745;28;20053;-35
2021/05/12 06:41:47;;;;;;;5.32;1.48;;;17.90;56.70;;;;;;5032401;28;20032;-35
2021/05/12 06:44:13;;;;;;;4.82;1.33;;;17.70;56.80;;;;;;5034689;28;20051;-35
2021/05/12 06:46:38;;;;;;;3.03;1.30;;;17.50;57.60;;;;;;5031733;28;20091;-45
2021/05/12 06:49:04;;;;;;;4.50;1.40;;;17.90;58.10;;;;;;5032655;28;20048;-34
2021/05/12 06:51:30;;;;;;;4.28;1.30;;;17.70;59.60;;;;;;5031770;28;20037;-34
2021/05/12 06:53:55;;;;;;;2.38;1.20;;;17.20;58.00;;;;;;5030618;28;20237;-34
2021/05/12 06:56:21;;;;;;;5.75;2.20;;;17.40;57.70;;;;;;5032538;28;20033;-34
2021/05/12 06:58:47;;;;;;;2.72;1.42;;;17.50;58.00;;;;;;5031790;28;20120;-34
2021/05/12 07:01:15;;;;;;;3.20;1.40;;;17.10;57.90;;;;;;5032603;28;20033;-34
2021/05/12 07:03:41;;;;;;;3.45;1.50;;;17.00;58.30;;;;;;5031840;28;20037;-35
2021/05/12 07:06:06;;;;;;;5.93;1.75;;;17.10;58.00;;;;;;5032148;28;20037;-34
2021/05/12 07:08:37;;;;;;;4.75;1.25;;;16.90;58.60;;;;;;5032527;28;20029;-35
2021/05/12 07:11:03;;;;;;;7.88;1.40;;;16.90;58.40;;;;;;5032241;28;20513;-34
2021/05/12 07:13:29;;;;;;;2.78;1.38;;;17.00;58.50;;;;;;5032300;28;20077;-43
2021/05/12 07:15:54;;;;;;;4.20;1.27;;;17.10;58.10;;;;;;5034953;28;20067;-35
2021/05/12 07:18:20;;;;;;;2.95;1.40;;;17.10;57.70;;;;;;5031256;28;20059;-36
2021/05/12 07:20:46;;;;;;;3.38;1.15;;;17.10;57.60;;;;;;5030164;28;20466;-35
2021/05/12 07:23:19;;;;;;;3.05;1.13;;;17.10;57.90;;;;;;5030974;28;20470;-35
2021/05/12 07:25:46;;;;;;;2.35;1.20;;;17.10;57.70;;;;;;5031855;28;20025;-36
2021/05/12 07:28:13;;;;;;;3.25;1.10;;;16.90;57.80;;;;;;5030511;28;20033;-33
2021/05/12 07:30:39;;;;;;;2.88;1.17;;;17.00;58.80;;;;;;5031115;28;20033;-43
2021/05/12 07:33:05;;;;;;;2.85;1.13;;;16.70;58.50;;;;;;5024339;28;20044;-34
2021/05/12 07:35:31;;;;;;;3.17;1.13;;;17.10;58.20;;;;;;5028544;28;20064;-34
2021/05/12 07:38:04;;;;;;;3.90;1.52;;;17.10;58.00;;;;;;5030222;28;20062;-33
2021/05/12 07:40:31;;;;;;;2.22;1.00;;;17.10;58.00;;;;;;5033001;28;20037;-34
2021/05/12 07:42:59;;;;;;;2.88;0.80;;;18.20;55.50;;;;;;5026653;28;20025;-33
2021/05/12 07:45:25;;;;;;;3.33;0.88;;;18.90;54.30;;;;;;5035526;28;20033;-37
2021/05/12 07:47:52;;;;;;;7.10;0.90;;;19.30;54.20;;;;;;5029215;28;20030;-33
2021/05/12 07:50:18;;;;;;;1.50;0.70;;;19.70;54.20;;;;;;5032095;28;20484;-33
2021/05/12 07:52:44;;;;;;;3.28;0.70;;;19.90;54.20;;;;;;5030816;28;20029;-34
2021/05/12 07:55:10;;;;;;;1.75;0.70;;;20.00;54.00;;;;;;5029598;28;20433;-34
2021/05/12 07:57:36;;;;;;;4.57;0.70;;;20.10;54.00;;;;;;5031599;28;20041;-33
2021/05/12 08:00:04;;;;;;;1.52;0.80;;;20.10;54.00;;;;;;5029127;28;20148;-33
2021/05/12 08:02:30;;;;;;;1.73;0.77;;;20.20;54.10;;;;;;5031290;28;20040;-33
2021/05/12 08:04:56;;;;;;;2.10;0.70;;;20.20;54.00;;;;;;5030445;28;20398;-33
2021/05/12 08:07:23;;;;;;;3.42;1.00;;;20.20;53.90;;;;;;5024438;28;20083;-38
2021/05/12 08:09:49;;;;;;;2.20;0.80;;;20.30;53.80;;;;;;5028073;28;20076;-32
2021/05/12 08:12:14;;;;;;;2.92;0.50;;;20.30;53.70;;;;;;5029790;28;20033;-34
2021/05/12 08:14:40;;;;;;;1.58;0.50;;;20.40;53.70;;;;;;5035784;28;20104;-43
2021/05/12 08:17:06;;;;;;;1.85;0.70;;;20.40;53.60;;;;;;5024841;28;20029;-35
2021/05/12 08:19:32;;;;;;;1.50;0.57;;;20.40;53.40;;;;;;5030244;28;20033;-34
2021/05/12 08:22:02;;;;;;;2.47;0.55;;;20.50;53.40;;;;;;5029238;28;20033;-35
2021/05/12 08:24:27;;;;;;;1.52;0.63;;;20.50;53.40;;;;;;5029880;28;20052;-35
2021/05/12 08:26:53;;;;;;;3.35;0.65;;;20.50;53.40;;;;;;5025858;28;20037;-35
2021/05/12 08:29:19;;;;;;;1.75;0.47;;;20.60;53.30;;;;;;5031501;28;20080;-35
2021/05/12 08:31:46;;;;;;;1.15;0.50;;;20.60;53.30;;;;;;5028887;28;20033;-45
2021/05/12 08:34:12;;;;;;;2.63;0.70;;;20.60;53.20;;;;;;5030395;28;20083;-34
2021/05/12 08:36:38;;;;;;;3.75;1.00;;;20.70;53.20;;;;;;5030953;28;20033;-35
2021/05/12 08:39:06;;;;;;;1.67;0.80;;;20.70;53.10;;;;;;5030489;28;20536;-34
2021/05/12 08:41:34;;;;;;;1.00;0.40;;;20.70;53.00;;;;;;5030801;28;20100;-35
2021/05/12 08:44:01;;;;;;;1.98;0.80;;;20.70;53.00;;;;;;5030622;28;20518;-35
2021/05/12 08:46:28;;;;;;;1.00;0.60;;;20.70;52.90;;;;;;5031832;28;20425;-35
2021/05/12 08:48:54;;;;;;;0.90;0.50;;;20.70;52.90;;;;;;5028881;28;20095;-34
2021/05/12 08:51:21;;;;;;;2.58;0.80;;;20.80;53.00;;;;;;5029727;28;20084;-34
2021/05/12 08:53:48;;;;;;;2.58;0.70;;;20.80;52.90;;;;;;5029714;28;20374;-35
2021/05/12 08:56:13;;;;;;;1.25;0.65;;;20.80;52.90;;;;;;5031185;28;20044;-36
2021/05/12 08:58:39;;;;;;;1.67;0.70;;;20.80;52.90;;;;;;5034404;28;20123;-45
2021/05/12 09:01:05;;;;;;;1.67;0.60;;;20.80;52.80;;;;;;5033843;28;20057;-34
2021/05/12 09:03:31;;;;;;;1.17;0.60;;;20.80;52.80;;;;;;5034122;28;20037;-35
2021/05/12 09:05:57;;;;;;;1.17;0.45;;;20.80;52.70;;;;;;5033558;28;20048;-35
2021/05/12 09:08:26;;;;;;;1.23;0.52;;;20.90;52.70;;;;;;5034662;28;20041;-35
2021/05/12 09:10:53;;;;;;;1.10;0.50;;;20.90;52.70;;;;;;5034417;28;20079;-35
2021/05/12 09:13:37;;;;;;;1.20;0.63;;;20.90;52.60;;;;;;5034543;28;20036;-35
2021/05/12 09:16:22;;;;;;;7.35;0.90;;;20.90;52.90;;;;;;5037915;28;20049;-35
2021/05/12 09:19:04;;;;;;;2.15;0.70;;;20.90;52.60;;;;;;5033604;28;20064;-34
2021/05/12 09:21:46;;;;;;;0.85;0.50;;;20.90;52.60;;;;;;5026600;28;20025;-35
2021/05/12 09:24:26;;;;;;;;;;;21.00;52.60;;;;;;5034895;28;20117;-34
2021/05/12 09:26:54;;;;;;;0.85;0.57;;;21.00;52.50;;;;;;5031694;28;20370;-35
2021/05/12 09:29:28;;;;;;;1.35;0.68;;;21.00;52.50;;;;;;5034410;28;20363;-35
2021/05/12 09:32:03;;;;;;;1.35;0.93;;;21.00;52.40;;;;;;5032686;28;20129;-35
2021/05/12 09:34:29;;;;;;;1.25;0.52;;;21.00;52.30;;;;;;5034163;28;20030;-35
2021/05/12 09:36:54;;;;;;;0.65;0.50;;;21.00;52.30;;;;;;5033085;28;20485;-35
2021/05/12 09:39:20;;;;;;;1.48;0.70;;;21.00;52.20;;;;;;5033165;28;20033;-35
2021/05/12 09:41:46;;;;;;;2.55;0.80;;;21.00;52.20;;;;;;5033272;28;20064;-34
2021/05/12 09:44:11;;;;;;;0.93;0.50;;;21.00;52.10;;;;;;5036100;28;20383;-35
2021/05/12 09:46:41;;;;;;;0.60;0.50;;;21.00;52.10;;;;;;5035890;28;20450;-36
2021/05/12 09:49:09;;;;;;;1.20;0.50;;;21.00;52.10;;;;;;5033584;28;20036;-34
2021/05/12 09:51:40;;;;;;;2.67;0.98;;;21.00;52.70;;;;;;5033851;28;20022;-34
2021/05/12 09:54:18;;;;;;;1.23;0.60;;;21.10;52.10;;;;;;5033011;28;20037;-35
2021/05/12 09:56:50;;;;;;;1.45;0.60;;;21.10;52.00;;;;;;5031707;28;20025;-44
2021/05/12 09:59:23;;;;;;;1.23;0.50;;;21.10;52.00;;;;;;5033857;28;20061;-34
2021/05/12 10:01:50;;;;;;;0.63;0.40;;;21.00;51.80;;;;;;5032770;28;20052;-35
2021/05/12 10:04:36;;;;;;;2.15;0.70;;;21.10;51.90;;;;;;5033322;28;20362;-34
2021/05/12 10:07:14;;;;;;;0.80;0.70;;;21.10;52.00;;;;;;5032319;28;20479;-35
2021/05/12 10:09:42;;;;;;;1.85;0.70;;;21.20;53.30;;;;;;5033356;28;20038;-43
2021/05/12 10:12:19;;;;;;;1.45;0.60;;;21.20;52.20;;;;;;5031971;28;20080;-35
2021/05/12 10:14:47;;;;;;;2.45;0.60;;;21.10;51.80;;;;;;5037622;28;20351;-44
2021/05/12 10:17:14;;;;;;;1.85;0.60;;;21.10;51.80;;;;;;5030981;28;20029;-35
2021/05/12 10:19:42;;;;;;;1.35;0.68;;;21.10;51.80;;;;;;5031743;28;20071;-44
2021/05/12 10:22:08;;;;;;;1.58;0.52;;;21.10;52.10;;;;;;5032864;28;20025;-34
2021/05/12 10:24:36;;;;;;;1.13;0.60;;;21.10;51.70;;;;;;5033446;28;20429;-35
2021/05/12 10:27:09;;;;;;;2.90;0.80;;;21.10;51.70;;;;;;5032416;28;20099;-35
2021/05/12 10:29:36;;;;;;;1.85;0.80;;;21.20;58.00;;;;;;5029908;28;20083;-35
2021/05/12 10:32:14;;;;;;;1.98;0.60;;;21.20;56.10;;;;;;5031083;28;20103;-34
2021/05/12 10:34:40;;;;;;;1.23;0.50;;;21.20;56.70;;;;;;5033001;28;20029;-45
2021/05/12 10:37:29;;;;;;;1.73;0.60;;;21.20;56.60;;;;;;5032492;28;20051;-34
2021/05/12 10:39:59;;;;;;;1.27;0.70;;;21.30;56.70;;;;;;5032049;28;20031;-34
2021/05/12 10:42:45;;;;;;;0.68;0.50;;;21.20;56.10;;;;;;5033107;28;20039;-35
2021/05/12 10:45:15;;;;;;;1.05;0.60;;;21.30;60.80;;;;;;5035850;28;20104;-34
2021/05/12 10:47:41;;;;;;;2.03;0.70;;;21.30;56.50;;;;;;5032780;28;20055;-44
2021/05/12 10:50:07;;;;;;;0.75;0.55;;;21.30;56.10;;;;;;5032286;28;20475;-34
2021/05/12 10:52:33;;;;;;;1.33;0.55;;;21.30;56.00;;;;;;5033016;28;20033;-35
2021/05/12 10:54:59;;;;;;;1.13;0.60;;;21.30;55.60;;;;;;5031849;28;20099;-35
2021/05/12 10:57:43;;;;;;;3.40;0.70;;;21.30;55.50;;;;;;5032070;28;20032;-35
2021/05/12 11:00:09;;;;;;;2.83;0.82;;;21.30;55.50;;;;;;5031147;28;20056;-35
2021/05/12 11:02:51;;;;;;;3.70;0.90;;;21.30;55.60;;;;;;5031001;28;20017;-34
2021/05/12 11:05:17;;;;;;;1.57;0.73;;;21.30;56.00;;;;;;5025381;28;20417;-35
2021/05/12 11:08:15;;;;;;;2.72;0.80;;;21.30;56.10;;;;;;5031697;28;20116;-45
2021/05/12 11:11:05;;;;;;;2.08;0.63;;;21.30;55.80;;;;;;5029509;28;20025;-42
2021/05/12 11:13:33;;;;;;;1.92;0.70;;;21.30;55.90;;;;;;5029441;28;20041;-42
2021/05/12 11:16:01;;;;;;;3.20;0.88;;;21.30;55.80;;;;;;5035814;28;20484;-34
2021/05/12 11:18:36;;;;;;;3.15;1.00;;;21.30;55.70;;;;;;5032023;28;20075;-35
2021/05/12 11:21:20;;;;;;;1.95;0.65;;;21.30;55.70;;;;;;5031210;28;20041;-35
2021/05/12 11:24:13;;;;;;;2.13;0.75;;;21.30;55.70;;;;;;5029905;28;20037;-35
2021/05/12 11:31:55;;;;;;;2.20;0.80;;;21.40;55.90;;;;;;5030958;28;20109;-35
2021/05/12 11:34:21;;;;;;;2.72;0.70;;;21.30;56.00;;;;;;5031813;28;20472;-34
2021/05/12 11:36:47;;;;;;;1.42;0.65;;;21.40;56.30;;;;;;5030811;28;20049;-35
2021/05/12 11:39:13;;;;;;;4.05;1.02;;;21.40;56.60;;;;;;5031126;28;20034;-34
2021/05/12 11:41:40;;;;;;;1.88;0.98;;;21.40;56.70;;;;;;5032094;28;20026;-38
2021/05/12 11:44:06;;;;;;;4.20;1.08;;;21.40;56.20;;;;;;5028290;28;20033;-34
2021/05/12 11:46:32;;;;;;;2.15;0.88;;;21.40;57.00;;;;;;5038903;28;20087;-34
2021/05/12 11:49:04;;;;;;;3.53;0.95;;;21.30;57.00;;;;;;5031035;28;20045;-38
2021/05/12 11:52:00;;;;;;;2.17;0.80;;;21.30;54.30;;;;;;5030971;28;20136;-34
2021/05/12 11:54:27;;;;;;;4.65;1.63;;;21.30;54.20;;;;;;5028932;28;20044;-34
2021/05/12 11:56:55;;;;;;;2.50;1.00;;;21.20;53.60;;;;;;5029758;28;20030;-35
2021/05/12 11:59:26;;;;;;;4.95;1.05;;;21.20;53.70;;;;;;5031273;28;20116;-35
2021/05/12 12:02:02;;;;;;;2.20;0.90;;;21.20;53.50;;;;;;5031105;28;20112;-35
2021/05/12 12:04:36;;;;;;;4.40;1.05;;;21.10;53.20;;;;;;5029132;28;20374;-35
2021/05/12 12:07:03;;;;;;;3.28;1.23;;;21.10;53.00;;;;;;5030324;28;20033;-34
2021/05/12 12:09:29;;;;;;;1.77;0.88;;;21.10;53.20;;;;;;5031525;28;20026;-35
2021/05/12 12:11:58;;;;;;;3.30;1.25;;;21.10;53.60;;;;;;5030414;28;20029;-35
2021/05/12 12:14:31;;;;;;;3.58;1.10;;;21.10;53.50;;;;;;5032944;28;20032;-35
2021/05/12 12:16:58;;;;;;;1.70;1.00;;;21.10;54.00;;;;;;5031083;28;20155;-34
2021/05/12 12:19:26;;;;;;;3.17;1.00;;;21.20;53.90;;;;;;5031386;28;20051;-35
2021/05/12 12:21:54;;;;;;;3.15;1.48;;;21.20;54.10;;;;;;5030439;28;20032;-35
2021/05/12 12:24:24;;;;;;;1.77;0.90;;;21.20;54.60;;;;;;5030180;28;20029;-34
2021/05/12 12:26:55;;;;;;;12.32;1.70;;;21.20;54.80;;;;;;5028007;28;20144;-35
2021/05/12 12:29:22;;;;;;;2.17;0.82;;;21.30;55.20;;;;;;5030326;28;20034;-34
2021/05/12 12:31:50;;;;;;;1.38;0.63;;;21.30;55.30;;;;;;5028547;28;20055;-36
2021/05/12 12:34:32;;;;;;;1.40;0.75;;;21.30;55.30;;;;;;5045836;28;20034;-35
2021/05/12 12:37:18;;;;;;;6.13;1.25;;;21.30;55.50;;;;;;5029366;28;20477;-35
2021/05/12 12:42:50;;;;;;;3.85;0.88;;;21.30;55.80;;;;;;5030539;28;20084;-34
2021/05/12 12:45:28;;;;;;;1.40;0.75;;;21.40;55.90;;;;;;5034270;28;20096;-35
2021/05/12 12:47:58;;;;;;;2.47;0.88;;;21.30;56.20;;;;;;5028998;28;20470;-35
2021/05/12 12:50:29;;;;;;;4.85;1.40;;;21.40;56.60;;;;;;5030307;28;20029;-34
2021/05/12 12:52:56;;;;;;;1.73;0.88;;;21.30;56.70;;;;;;5029809;28;20037;-35
2021/05/12 12:55:28;;;;;;;1.98;0.68;;;21.40;56.70;;;;;;5029822;28;20036;-34
2021/05/12 12:58:00;;;;;;;3.35;1.08;;;21.40;56.70;;;;;;5017513;28;20484;-35
2021/05/12 13:00:31;;;;;;;2.22;0.95;;;21.40;56.70;;;;;;5030001;28;20043;-35
2021/05/12 13:03:11;;;;;;;1.73;0.80;;;21.40;56.60;;;;;;5029711;28;20025;-35